Data for 11/13/2006

Time Sea-Level Adjusted Pressure Absolute Pressure Temperature Relative Humidity Dew Point   
(mb) (inHg) (mb) (inHg) (C) (F) (%) (C) (F)
00:05 1010 29.83 840 24.81 1.9 35.3 34 -12.2 10
00:10 1010 29.83 840 24.81 1.9 35.5 35 -12.1 10.1
00:15 1010 29.83 839 24.78 2 35.6 34 -12.2 10
00:20 1010 29.83 839 24.78 1.9 35.5 34 -12.2 10
00:25 1010 29.83 839 24.78 1.9 35.5 33 -12.6 9.4
00:30 1009 29.8 839 24.78 2.3 36.2 33 -12.5 9.5
00:35 1009 29.8 838 24.75 2.5 36.5 32 -12.7 9.2
00:40 1009 29.8 838 24.75 2.6 36.7 31 -13.1 8.5
00:45 1009 29.8 838 24.75 2.5 36.4 33 -12.4 9.7
00:50 1009 29.8 838 24.75 2.3 36.1 34 -12.1 10.2
00:55 1009 29.8 838 24.75 2.1 35.9 34 -12.3 9.9
01:00 1008 29.77 837 24.72 2.1 35.8 33 -12.4 9.6
01:05 1008 29.77 837 24.72 2 35.6 35 -12.1 10.3
01:10 1008 29.77 837 24.72 2 35.6 34 -12.4 9.7
01:15 1008 29.77 837 24.72 2 35.6 35 -11.8 10.8
01:20 1008 29.77 837 24.72 1.9 35.4 35 -12 10.4
01:25 1008 29.77 837 24.72 1.8 35.3 37 -11.3 11.6
01:30 1008 29.77 837 24.72 1.7 35 38 -11.2 11.8
01:35 1007 29.74 837 24.72 1.8 35.2 39 -10.7 12.7
01:40 1007 29.74 836 24.69 1.8 35.3 39 -10.6 12.9
01:45 1007 29.74 836 24.69 1.9 35.3 39 -10.6 12.9
01:50 1007 29.74 836 24.69 1.7 35.1 40 -10.6 12.9
01:55 1007 29.74 836 24.69 1.7 35 41 -10.4 13.4
02:00 1006 29.71 836 24.69 1.8 35.3 41 -10.2 13.7
02:05 1006 29.71 835 24.66 2 35.5 40 -10.2 13.7
02:10 1006 29.71 835 24.66 1.9 35.5 40 -10.3 13.5
02:15 1006 29.71 835 24.66 2 35.6 39 -10.7 12.8
02:20 1006 29.71 835 24.66 2 35.7 41 -10 14
02:25 1005 29.68 835 24.66 2.1 35.9 40 -10.2 13.6
02:30 1005 29.68 834 24.63 2.3 36.2 38 -10.6 12.8
02:35 1005 29.68 835 24.66 2.3 36.1 38 -10.7 12.7
02:40 1005 29.68 834 24.63 2.4 36.4 38 -10.5 13.1
02:45 1005 29.68 834 24.63 2.2 36 41 -9.7 14.6
02:50 1005 29.68 834 24.63 2 35.6 40 -10.2 13.7
02:55 1005 29.68 834 24.63 2 35.6 39 -10.5 13
03:00 1005 29.68 834 24.63 2.1 35.8 38 -10.7 12.8
03:05 1005 29.68 834 24.63 2.2 36 41 -9.6 14.7
03:10 1004 29.65 834 24.63 2.2 36 38 -10.6 12.9
03:15 1004 29.65 833 24.6 2.5 36.5 37 -10.7 12.7
03:20 1004 29.65 833 24.6 2.7 36.9 36 -11 12.1
03:25 1004 29.65 833 24.6 2.7 36.8 35 -11.2 11.9
03:30 1004 29.65 833 24.6 2.7 36.8 34 -11.6 11.1
03:35 1004 29.65 833 24.6 3 37.4 35 -11 12.1
03:40 1004 29.65 833 24.6 3 37.4 34 -11.3 11.6
03:45 1003 29.62 833 24.6 3.1 37.6 35 -11.1 12.1
03:50 1003 29.62 833 24.6 3.2 37.7 34 -11.4 11.5
03:55 1003 29.62 832 24.57 3.2 37.8 34 -11.2 11.9
04:00 1003 29.62 832 24.57 3.4 38.1 35 -10.7 12.7
04:05 1003 29.62 832 24.57 3.4 38.1 36 -10.5 13.2
04:10 1003 29.62 832 24.57 3.1 37.6 35 -10.8 12.5
04:15 1003 29.62 832 24.57 2.8 37.1 35 -11.2 11.9
04:20 1003 29.62 832 24.57 2.9 37.1 36 -10.9 12.3
04:25 1003 29.62 832 24.57 2.9 37.2 35 -11 12.1
04:30 1003 29.62 832 24.57 2.9 37.1 38 -10.1 13.8
04:35 1003 29.62 832 24.57 3 37.5 39 -9.5 14.8
04:40 1003 29.62 832 24.57 3.1 37.6 42 -8.6 16.4
04:45 1003 29.62 832 24.57 3.2 37.7 42 -8.4 16.8
04:50 1003 29.62 832 24.57 3.1 37.5 43 -8.3 17.1
04:55 1003 29.62 832 24.57 2.9 37.3 44 -8.1 17.4
05:00 1003 29.62 832 24.57 2.8 37 45 -8 17.6
05:05 1003 29.62 832 24.57 2.8 37.1 46 -7.6 18.3
05:10 1003 29.62 832 24.57 2.7 36.9 47 -7.5 18.5
05:15 1003 29.62 832 24.57 2.7 36.8 45 -8.1 17.4
05:20 1003 29.62 832 24.57 2.8 37 46 -7.7 18.1
05:25 1003 29.62 832 24.57 2.5 36.5 49 -7 19.3
05:30 1003 29.62 832 24.57 2.4 36.4 48 -7.6 18.3
05:35 1003 29.62 832 24.57 2.5 36.5 49 -7.1 19.2
05:40 1003 29.62 832 24.57 2.3 36.2 52 -6.5 20.3
05:45 1002 29.59 832 24.57 2.1 35.8 50 -7.3 18.9
05:50 1002 29.59 831 24.54 2.2 35.9 49 -7.6 18.4
05:55 1002 29.59 831 24.54 2.5 36.4 48 -7.4 18.6
06:00 1002 29.59 831 24.54 2.5 36.4 49 -7.2 19
06:05 1002 29.59 831 24.54 2.3 36.1 49 -7.4 18.6
06:10 1002 29.59 831 24.54 2.3 36.1 49 -7.4 18.6
06:15 1002 29.59 831 24.54 2.4 36.3 49 -7.3 18.8
06:20 1002 29.59 831 24.54 2.5 36.4 48 -7.4 18.6
06:25 1002 29.59 831 24.54 2.7 36.9 47 -7.4 18.7
06:30 1002 29.59 831 24.54 3 37.3 47 -7.1 19.1
06:35 1002 29.59 831 24.54 3.3 37.9 46 -7.2 19.1
06:40 1002 29.59 831 24.54 3.3 37.9 47 -6.9 19.5
06:45 1002 29.59 831 24.54 3.3 38 46 -7.1 19.3
06:50 1002 29.59 831 24.54 3.3 38 46 -7.1 19.2
06:55 1002 29.59 831 24.54 3.6 38.4 46 -6.9 19.5
07:00 1002 29.59 831 24.54 3.7 38.6 46 -6.8 19.7
07:05 1002 29.59 831 24.54 3.7 38.7 46 -6.7 19.9
07:10 1002 29.59 831 24.54 3.6 38.5 46 -6.9 19.6
07:15 1002 29.59 832 24.57 3.8 38.8 46 -6.9 19.6
07:20 1002 29.59 832 24.57 3.8 38.8 45 -7.2 19.1
07:25 1003 29.62 832 24.57 3.8 38.9 46 -6.9 19.6
07:30 1003 29.62 832 24.57 3.9 39 46 -6.6 20
07:35 1003 29.62 832 24.57 3.8 38.9 47 -6.6 20.2
07:40 1003 29.62 832 24.57 3.8 38.8 47 -6.5 20.2
07:45 1003 29.62 832 24.57 3.8 38.8 47 -6.5 20.4
07:50 1003 29.62 832 24.57 3.8 38.8 48 -6.3 20.7
07:55 1003 29.62 832 24.57 3.8 38.8 47 -6.4 20.4
08:00 1003 29.62 832 24.57 3.7 38.7 47 -6.7 19.9
08:05 1003 29.62 832 24.57 3.8 38.8 47 -6.5 20.4
08:10 1003 29.62 832 24.57 3.7 38.7 48 -6.4 20.6
08:15 1003 29.62 832 24.57 3.8 38.9 47 -6.4 20.4
08:20 1003 29.62 832 24.57 3.9 39.1 46 -6.7 20
08:25 1003 29.62 832 24.57 4.2 39.5 45 -6.7 20
08:30 1003 29.62 832 24.57 4 39.1 46 -6.6 20
08:35 1003 29.62 832 24.57 4 39.1 46 -6.6 20.1
08:40 1003 29.62 832 24.57 4.1 39.4 46 -6.6 20.1
08:45 1003 29.62 832 24.57 4.3 39.7 47 -6.1 21
08:50 1003 29.62 832 24.57 4.2 39.6 47 -6.2 20.8
08:55 1003 29.62 832 24.57 4.3 39.7 48 -5.8 21.6
09:00 1002 29.59 832 24.57 4.2 39.5 49 -5.6 21.9
09:05 1002 29.59 831 24.54 4.1 39.3 49 -5.7 21.7
09:10 1002 29.59 831 24.54 4.1 39.3 49 -5.8 21.6
09:15 1002 29.59 831 24.54 4.2 39.6 45 -6.7 20
09:20 1002 29.59 831 24.54 4.3 39.7 45 -6.6 20.1
09:25 1002 29.59 831 24.54 4.7 40.4 42 -7.1 19.2
09:30 1002 29.59 831 24.54 5 41.1 41 -7.2 19.1
09:35 1002 29.59 831 24.54 5.1 41.2 40 -7.5 18.4
09:40 1002 29.59 831 24.54 5.5 41.8 39 -7.3 18.9
09:45 1002 29.59 831 24.54 5.7 42.3 38 -7.4 18.8
09:50 1002 29.59 831 24.54 5.9 42.7 39 -7 19.3
09:55 1002 29.59 831 24.54 5.6 42.1 40 -7 19.4
10:00 1002 29.59 831 24.54 5.5 42 39 -7.4 18.8
10:05 1002 29.59 831 24.54 5.8 42.5 38 -7.3 18.9
10:10 1002 29.59 831 24.54 6.2 43.2 38 -7.2 19.1
10:15 1002 29.59 831 24.54 6.4 43.5 36 -7.4 18.6
10:20 1002 29.59 831 24.54 6.2 43.2 34 -8.4 16.8
10:25 1003 29.62 832 24.57 6.4 43.6 35 -8.1 17.4
10:30 1003 29.62 832 24.57 6.3 43.3 34 -8.5 16.6
10:35 1003 29.62 832 24.57 6.1 42.9 35 -8.3 17.1
10:40 1003 29.62 832 24.57 6.1 43 35 -8.1 17.4
10:45 1003 29.62 832 24.57 6.2 43.1 33 -9 15.8
10:50 1003 29.62 832 24.57 6.2 43.2 35 -8.2 17.2
10:55 1003 29.62 832 24.57 6.2 43.1 35 -8.3 17.1
11:00 1003 29.62 832 24.57 6.1 43 36 -7.7 18.1
11:05 1003 29.62 832 24.57 6.1 42.9 36 -8 17.6
11:10 1002 29.59 832 24.57 6.1 43 35 -8.2 17.2
11:15 1003 29.62 832 24.57 6.5 43.8 33 -8.5 16.8
11:20 1003 29.62 832 24.57 7.3 45.2 32 -8.5 16.8
11:25 1002 29.59 832 24.57 7.5 45.5 30 -8.9 16
11:30 1002 29.59 832 24.57 7.3 45.2 31 -8.7 16.4
11:35 1003 29.62 832 24.57 6.9 44.5 33 -8.4 16.9
11:40 1002 29.59 832 24.57 6.8 44.2 32 -8.9 16
11:45 1003 29.62 832 24.57 6.8 44.2 32 -8.8 16.2
11:50 1002 29.59 832 24.57 6.9 44.4 33 -8.4 17
11:55 1002 29.59 832 24.57 6.7 44.1 33 -8.3 17
12:00 1002 29.59 832 24.57 6.7 44 34 -8.1 17.4
12:05 1002 29.59 832 24.57 6.6 43.9 34 -8.1 17.5
12:10 1002 29.59 832 24.57 6.5 43.8 35 -7.8 18
12:15 1002 29.59 831 24.54 6.6 43.9 36 -7.6 18.3
12:20 1002 29.59 831 24.54 6.5 43.7 37 -7.1 19.3
12:25 1002 29.59 831 24.54 6.3 43.4 38 -7.1 19.2
12:30 1002 29.59 831 24.54 6.3 43.3 37 -7.5 18.6
12:35 1002 29.59 831 24.54 6.3 43.4 38 -7 19.4
12:40 1002 29.59 831 24.54 6.4 43.6 38 -7 19.4
12:45 1002 29.59 831 24.54 6.8 44.3 34 -8 17.6
12:50 1002 29.59 831 24.54 7 44.7 35 -7.5 18.5
12:55 1002 29.59 831 24.54 7.1 44.8 34 -7.6 18.2
13:00 1002 29.59 831 24.54 7.5 45.4 35 -7.1 19.2
13:05 1002 29.59 831 24.54 7.3 45.2 35 -7.3 18.9
13:10 1002 29.59 831 24.54 7.1 44.7 35 -7.5 18.5
13:15 1002 29.59 831 24.54 7 44.7 35 -7.4 18.7
13:20 1002 29.59 831 24.54 6.8 44.2 37 -6.9 19.5
13:25 1002 29.59 831 24.54 6.8 44.2 37 -6.9 19.6
13:30 1002 29.59 831 24.54 7.6 45.6 36 -6.7 19.9
13:35 1002 29.59 831 24.54 7.4 45.4 35 -6.9 19.6
13:40 1002 29.59 831 24.54 7.6 45.6 35 -7 19.4
13:45 1002 29.59 831 24.54 7.6 45.6 35 -6.8 19.8
13:50 1002 29.59 831 24.54 7.6 45.6 34 -7.4 18.7
13:55 1002 29.59 831 24.54 7.7 45.8 34 -7.3 18.9
14:00 1002 29.59 831 24.54 8 46.3 34 -6.8 19.8
14:05 1002 29.59 831 24.54 8.2 46.7 33 -7.1 19.3
14:10 1002 29.59 831 24.54 8.1 46.6 33 -7.4 18.7
14:15 1002 29.59 831 24.54 7.9 46.3 33 -7.3 18.8
14:20 1002 29.59 831 24.54 7.7 45.8 33 -7.6 18.2
14:25 1002 29.59 832 24.57 7.4 45.4 30 -8.8 16.1
14:30 1002 29.59 832 24.57 7.3 45.1 31 -8.9 15.9
14:35 1003 29.62 832 24.57 7.2 44.9 32 -8.5 16.7
14:40 1003 29.62 832 24.57 7.2 44.9 32 -8.6 16.5
14:45 1003 29.62 832 24.57 7.1 44.8 32 -8.4 16.9
14:50 1003 29.62 832 24.57 7 44.7 34 -7.9 17.9
14:55 1003 29.62 832 24.57 7 44.6 34 -7.8 17.9
15:00 1003 29.62 832 24.57 6.9 44.4 34 -7.8 18
15:05 1003 29.62 832 24.57 7 44.5 34 -7.9 17.7
15:10 1003 29.62 832 24.57 7.1 44.7 32 -8.7 16.3
15:15 1003 29.62 832 24.57 7.1 44.7 30 -9.5 14.9
15:20 1003 29.62 832 24.57 7 44.6 29 -9.6 14.6
15:25 1003 29.62 832 24.57 6.8 44.2 30 -9.6 14.8
15:30 1003 29.62 832 24.57 6.7 44.1 31 -9.2 15.4
15:35 1003 29.62 832 24.57 6.6 43.8 31 -9.4 15
15:40 1003 29.62 832 24.57 6.5 43.7 31 -9.4 15.1
15:45 1003 29.62 832 24.57 6.5 43.6 31 -9.4 15
15:50 1003 29.62 832 24.57 6.4 43.5 32 -9.2 15.4
15:55 1003 29.62 832 24.57 6.3 43.3 32 -9.1 15.6
16:00 1003 29.62 832 24.57 6.1 43.1 33 -8.9 16
16:05 1003 29.62 833 24.6 6 42.8 33 -9 15.8
16:10 1003 29.62 833 24.6 5.9 42.6 35 -8.6 16.6
16:15 1003 29.62 833 24.6 6 42.7 38 -7.4 18.6
16:20 1003 29.62 833 24.6 5.9 42.6 40 -6.8 19.7
16:25 1003 29.62 832 24.57 5.8 42.5 40 -6.9 19.6
16:30 1003 29.62 833 24.6 5.9 42.5 39 -6.9 19.5
16:35 1003 29.62 832 24.57 5.8 42.4 39 -7.1 19.3
16:40 1003 29.62 832 24.57 5.6 42.2 40 -6.9 19.6
16:45 1003 29.62 832 24.57 5.5 41.9 41 -6.8 19.8
16:50 1003 29.62 833 24.6 5.4 41.7 41 -6.8 19.8
16:55 1003 29.62 833 24.6 5.2 41.4 41 -7.1 19.3
17:00 1003 29.62 832 24.57 5.1 41.2 39 -7.6 18.3
17:05 1003 29.62 832 24.57 5.1 41.1 38 -8.1 17.5
17:10 1003 29.62 832 24.57 5.1 41.1 38 -8 17.6
17:15 1003 29.62 832 24.57 5 41.1 39 -7.8 18
17:20 1003 29.62 832 24.57 5.1 41.2 38 -8.2 17.3
17:25 1003 29.62 832 24.57 5.2 41.4 37 -8.3 17
17:30 1003 29.62 832 24.57 5.2 41.3 36 -8.9 16
17:35 1003 29.62 832 24.57 5.2 41.3 36 -8.6 16.6
17:40 1003 29.62 832 24.57 5.1 41.1 37 -8.6 16.6
17:45 1003 29.62 832 24.57 4.9 40.8 38 -8.3 17.1
17:50 1003 29.62 832 24.57 4.7 40.5 38 -8.6 16.6
17:55 1003 29.62 832 24.57 4.7 40.4 38 -8.5 16.8
18:00 1003 29.62 832 24.57 4.5 40.1 38 -8.7 16.4
18:05 1003 29.62 832 24.57 4.4 40 38 -8.8 16.2
18:10 1003 29.62 832 24.57 4.4 39.9 37 -9 15.8
18:15 1003 29.62 832 24.57 4.4 40 37 -8.9 15.9
18:20 1003 29.62 832 24.57 4.3 39.8 36 -9.3 15.3
18:25 1003 29.62 832 24.57 4.3 39.7 36 -9.4 15.2
18:30 1003 29.62 832 24.57 4.2 39.6 36 -9.6 14.7
18:35 1003 29.62 832 24.57 4.2 39.6 36 -9.5 14.9
18:40 1003 29.62 832 24.57 4.2 39.5 36 -9.5 14.9
18:45 1003 29.62 832 24.57 4.1 39.4 37 -9.3 15.2
18:50 1002 29.59 832 24.57 4 39.2 38 -9.2 15.5
18:55 1002 29.59 831 24.54 3.9 39.1 38 -9.2 15.5
19:00 1002 29.59 831 24.54 3.9 39.1 37 -9.4 15.1
19:05 1002 29.59 831 24.54 4 39.2 38 -9.2 15.4
19:10 1002 29.59 831 24.54 4 39.1 38 -9.2 15.4
19:15 1002 29.59 831 24.54 3.9 39 38 -9.2 15.4
19:20 1001 29.56 831 24.54 3.7 38.7 39 -9.1 15.6
19:25 1001 29.56 830 24.51 3.6 38.5 39 -9.3 15.3
19:30 1001 29.56 830 24.51 3.7 38.7 39 -9.1 15.6
19:35 1001 29.56 830 24.51 3.4 38.1 41 -8.8 16.1
19:40 1001 29.56 830 24.51 2.8 37.1 42 -8.8 16.2
19:45 1001 29.56 830 24.51 2.8 37.1 42 -9 15.8
19:50 1001 29.56 830 24.51 3.1 37.5 40 -9.2 15.5
19:55 1001 29.56 830 24.51 2.9 37.3 41 -9.1 15.6
20:00 1001 29.56 830 24.51 2.9 37.3 40 -9.4 15.2
20:05 1001 29.56 830 24.51 3.1 37.5 41 -8.9 16
20:10 1001 29.56 830 24.51 3.1 37.5 41 -9 15.8
20:15 1001 29.56 830 24.51 2.9 37.1 41 -9 15.7
20:20 1001 29.56 830 24.51 2.9 37.2 41 -9.1 15.5
20:25 1001 29.56 830 24.51 3.3 37.9 38 -9.6 14.7
20:30 1001 29.56 830 24.51 3.4 38.1 39 -9.4 15
20:35 1001 29.56 830 24.51 3.4 38.1 39 -9.4 15
20:40 1001 29.56 830 24.51 3.5 38.3 38 -9.6 14.7
20:45 1001 29.56 830 24.51 3.6 38.4 37 -9.8 14.4
20:50 1001 29.56 830 24.51 3.6 38.4 36 -10.2 13.6
20:55 1001 29.56 830 24.51 3.6 38.4 35 -10.3 13.4
21:00 1001 29.56 830 24.51 3.4 38.2 36 -10.1 13.8
21:05 1001 29.56 830 24.51 3.5 38.3 37 -10 14
21:10 1001 29.56 830 24.51 3.6 38.5 35 -10.4 13.3
21:15 1001 29.56 830 24.51 3.8 38.9 35 -10.4 13.2
21:20 1001 29.56 830 24.51 4 39.2 34 -10.6 12.9
21:25 1001 29.56 830 24.51 4.1 39.3 33 -10.7 12.7
21:30 1000 29.53 830 24.51 4.2 39.5 32 -11.2 11.9
21:35 1000 29.53 830 24.51 4.4 39.9 32 -10.8 12.5
21:40 1000 29.53 830 24.51 4.3 39.8 33 -10.7 12.8
21:45 1000 29.53 829 24.48 4.1 39.4 33 -10.6 12.8
21:50 1000 29.53 829 24.48 4.1 39.3 33 -10.7 12.7
21:55 1000 29.53 829 24.48 4 39.3 34 -10.6 12.9
22:00 1000 29.53 829 24.48 3.8 38.9 34 -10.5 13.1
22:05 1000 29.53 829 24.48 3.7 38.6 34 -10.7 12.7
22:10 1000 29.53 829 24.48 3.5 38.3 35 -10.6 12.8
22:15 1000 29.53 829 24.48 3.3 38 35 -10.8 12.6
22:20 1000 29.53 829 24.48 3.3 37.9 35 -10.8 12.5
22:25 1000 29.53 829 24.48 3.1 37.6 39 -9.7 14.6
22:30 1000 29.53 829 24.48 2.7 36.8 39 -10 14
22:35 1000 29.53 829 24.48 2.8 37 38 -10 13.9
22:40 1000 29.53 829 24.48 2.8 37.1 37 -10.4 13.3
22:45 1000 29.53 829 24.48 2.9 37.2 37 -10.3 13.5
22:50 999 29.5 829 24.48 2.9 37.2 38 -10.2 13.7
22:55 999 29.5 829 24.48 2.8 37 40 -9.6 14.8
23:00 999 29.5 829 24.48 2.4 36.2 44 -8.7 16.3
23:05 999 29.5 828 24.45 1.9 35.5 45 -8.7 16.4
23:10 999 29.5 828 24.45 1.7 35.1 44 -9.4 15.1
23:15 999 29.5 828 24.45 2 35.5 42 -9.8 14.3
23:20 999 29.5 829 24.48 2.4 36.2 41 -9.6 14.7
23:25 999 29.5 829 24.48 2.5 36.6 41 -9.4 15
23:30 999 29.5 829 24.48 2.6 36.8 39 -9.8 14.3
23:35 999 29.5 829 24.48 2.7 36.9 40 -9.7 14.6
23:40 999 29.5 829 24.48 2.7 36.9 38 -10.1 13.9
23:45 999 29.5 829 24.48 2.8 37 38 -10.1 13.9
23:50 999 29.5 829 24.48 2.8 37 39 -9.8 14.4
23:55 999 29.5 829 24.48 2.8 37 37 -10.4 13.2
24:00 1000 29.53 829 24.48 3.1 37.7 38 -9.8 14.4